sensor_id;sensor_type;location;lat;lon;timestamp;pressure;altitude;pressure_sealevel;temperature;humidity
17309;BME280;8772;42.804;23.426;2023-04-23T00:01:31;74277.41;;;-140.58;100.00
17309;BME280;8772;42.804;23.426;2023-04-23T00:04:07;74291.78;;;-140.58;100.00
17309;BME280;8772;42.804;23.426;2023-04-23T00:06:34;74285.63;;;-140.58;100.00
17309;BME280;8772;42.804;23.426;2023-04-23T00:09:02;74289.72;;;-140.58;100.00
17309;BME280;8772;42.804;23.426;2023-04-23T00:11:29;74285.63;;;-140.58;100.00
17309;BME280;8772;42.804;23.426;2023-04-23T00:13:57;74293.84;;;-140.58;100.00
17309;BME280;8772;42.804;23.426;2023-04-23T00:16:24;74293.84;;;-140.58;100.00
17309;BME280;8772;42.804;23.426;2023-04-23T00:18:51;74287.69;;;-140.58;100.00
17309;BME280;8772;42.804;23.426;2023-04-23T00:21:19;74304.09;;;-140.58;100.00
17309;BME280;8772;42.804;23.426;2023-04-23T00:23:46;74300.00;;;-140.58;100.00
17309;BME280;8772;42.804;23.426;2023-04-23T00:26:13;74293.84;;;-140.58;100.00
17309;BME280;8772;42.804;23.426;2023-04-23T00:28:42;74304.09;;;-140.58;100.00
17309;BME280;8772;42.804;23.426;2023-04-23T00:31:08;74289.72;;;-140.58;100.00
17309;BME280;8772;42.804;23.426;2023-04-23T00:33:35;74293.84;;;-140.58;100.00
17309;BME280;8772;42.804;23.426;2023-04-23T00:36:03;74285.63;;;-140.58;100.00
17309;BME280;8772;42.804;23.426;2023-04-23T00:38:31;74289.72;;;-140.58;100.00
17309;BME280;8772;42.804;23.426;2023-04-23T00:40:58;74279.47;;;-140.58;100.00
17309;BME280;8772;42.804;23.426;2023-04-23T00:43:25;74281.53;;;-140.58;100.00
17309;BME280;8772;42.804;23.426;2023-04-23T00:45:52;74295.88;;;-140.58;100.00
17309;BME280;8772;42.804;23.426;2023-04-23T00:48:19;74297.94;;;-140.58;100.00
17309;BME280;8772;42.804;23.426;2023-04-23T00:50:46;74289.72;;;-140.58;100.00
17309;BME280;8772;42.804;23.426;2023-04-23T00:53:13;74293.84;;;-140.58;100.00
17309;BME280;8772;42.804;23.426;2023-04-23T00:55:42;74291.78;;;-140.58;100.00
17309;BME280;8772;42.804;23.426;2023-04-23T00:58:09;74281.53;;;-140.58;100.00
17309;BME280;8772;42.804;23.426;2023-04-23T01:00:40;74283.56;;;-140.58;100.00
17309;BME280;8772;42.804;23.426;2023-04-23T01:06:32;74306.16;;;-140.58;100.00
17309;BME280;8772;42.804;23.426;2023-04-23T01:08:59;74310.25;;;-140.58;100.00
17309;BME280;8772;42.804;23.426;2023-04-23T01:11:29;74310.25;;;-140.58;100.00
17309;BME280;8772;42.804;23.426;2023-04-23T01:13:57;74310.25;;;-140.58;100.00
17309;BME280;8772;42.804;23.426;2023-04-23T01:16:24;74336.91;;;-140.58;100.00
17309;BME280;8772;42.804;23.426;2023-04-23T01:18:51;74343.06;;;-140.58;100.00
17309;BME280;8772;42.804;23.426;2023-04-23T01:21:18;74351.28;;;-140.58;100.00
17309;BME280;8772;42.804;23.426;2023-04-23T01:23:47;74359.50;;;-140.58;100.00
17309;BME280;8772;42.804;23.426;2023-04-23T01:26:14;74361.53;;;-140.58;100.00
17309;BME280;8772;42.804;23.426;2023-04-23T01:28:43;74371.81;;;-140.58;100.00
17309;BME280;8772;42.804;23.426;2023-04-23T01:31:11;74359.50;;;-140.58;100.00
17309;BME280;8772;42.804;23.426;2023-04-23T01:33:39;74367.69;;;-140.58;100.00
17309;BME280;8772;42.804;23.426;2023-04-23T01:36:06;74367.69;;;-140.58;100.00
17309;BME280;8772;42.804;23.426;2023-04-23T01:38:35;74363.59;;;-140.58;100.00
17309;BME280;8772;42.804;23.426;2023-04-23T01:41:04;74359.50;;;-140.58;100.00
17309;BME280;8772;42.804;23.426;2023-04-23T01:43:32;74357.44;;;-140.58;100.00
17309;BME280;8772;42.804;23.426;2023-04-23T01:45:59;74351.28;;;-140.58;100.00
17309;BME280;8772;42.804;23.426;2023-04-23T01:48:26;74336.91;;;-140.58;100.00
17309;BME280;8772;42.804;23.426;2023-04-23T01:50:53;74338.97;;;-140.58;100.00
17309;BME280;8772;42.804;23.426;2023-04-23T01:53:20;74326.66;;;-140.58;100.00
17309;BME280;8772;42.804;23.426;2023-04-23T01:55:49;74343.06;;;-140.58;100.00
17309;BME280;8772;42.804;23.426;2023-04-23T01:58:18;74326.66;;;-140.58;100.00
17309;BME280;8772;42.804;23.426;2023-04-23T02:00:45;74336.91;;;-140.58;100.00
17309;BME280;8772;42.804;23.426;2023-04-23T02:03:12;74355.38;;;-140.58;100.00
17309;BME280;8772;42.804;23.426;2023-04-23T02:05:40;74347.19;;;-140.58;100.00
17309;BME280;8772;42.804;23.426;2023-04-23T02:08:07;74334.88;;;-140.58;100.00
17309;BME280;8772;42.804;23.426;2023-04-23T02:10:34;74330.75;;;-140.58;100.00
17309;BME280;8772;42.804;23.426;2023-04-23T02:13:01;74318.44;;;-140.58;100.00
17309;BME280;8772;42.804;23.426;2023-04-23T02:15:30;74314.34;;;-140.58;100.00
17309;BME280;8772;42.804;23.426;2023-04-23T02:17:57;74306.16;;;-140.58;100.00
17309;BME280;8772;42.804;23.426;2023-04-23T02:20:24;74320.50;;;-140.58;100.00
17309;BME280;8772;42.804;23.426;2023-04-23T02:22:50;74318.44;;;-140.58;100.00
17309;BME280;8772;42.804;23.426;2023-04-23T02:25:17;74328.72;;;-140.58;100.00
17309;BME280;8772;42.804;23.426;2023-04-23T02:27:46;74330.75;;;-140.58;100.00
17309;BME280;8772;42.804;23.426;2023-04-23T02:30:13;74334.88;;;-140.58;100.00
17309;BME280;8772;42.804;23.426;2023-04-23T02:32:41;74322.56;;;-140.58;100.00
17309;BME280;8772;42.804;23.426;2023-04-23T02:35:08;74326.66;;;-140.58;100.00
17309;BME280;8772;42.804;23.426;2023-04-23T02:37:36;74343.06;;;-140.58;100.00
17309;BME280;8772;42.804;23.426;2023-04-23T02:40:05;74359.50;;;-140.58;100.00
17309;BME280;8772;42.804;23.426;2023-04-23T02:42:32;74363.59;;;-140.58;100.00
17309;BME280;8772;42.804;23.426;2023-04-23T02:44:59;74359.50;;;-140.58;100.00
17309;BME280;8772;42.804;23.426;2023-04-23T02:47:26;74359.50;;;-140.58;100.00
17309;BME280;8772;42.804;23.426;2023-04-23T02:49:55;74367.69;;;-140.58;100.00
17309;BME280;8772;42.804;23.426;2023-04-23T02:52:23;74382.06;;;-140.58;100.00
17309;BME280;8772;42.804;23.426;2023-04-23T02:54:50;74380.00;;;-140.58;100.00
17309;BME280;8772;42.804;23.426;2023-04-23T02:57:17;74375.91;;;-140.58;100.00
17309;BME280;8772;42.804;23.426;2023-04-23T02:59:44;74377.94;;;-140.58;100.00
17309;BME280;8772;42.804;23.426;2023-04-23T03:02:11;74392.31;;;-140.58;100.00
17309;BME280;8772;42.804;23.426;2023-04-23T03:04:37;74396.41;;;-140.58;100.00
17309;BME280;8772;42.804;23.426;2023-04-23T03:07:06;74380.00;;;-140.58;100.00
17309;BME280;8772;42.804;23.426;2023-04-23T03:09:33;74375.91;;;-140.58;100.00
17309;BME280;8772;42.804;23.426;2023-04-23T03:12:00;74388.22;;;-140.58;100.00
17309;BME280;8772;42.804;23.426;2023-04-23T03:14:26;74388.22;;;-140.58;100.00
17309;BME280;8772;42.804;23.426;2023-04-23T03:16:53;74396.41;;;-140.58;100.00
17309;BME280;8772;42.804;23.426;2023-04-23T03:19:20;74400.53;;;-140.58;100.00
17309;BME280;8772;42.804;23.426;2023-04-23T03:21:47;74388.22;;;-140.58;100.00
17309;BME280;8772;42.804;23.426;2023-04-23T03:24:15;74400.53;;;-140.58;100.00
17309;BME280;8772;42.804;23.426;2023-04-23T03:26:42;74404.63;;;-140.58;100.00
17309;BME280;8772;42.804;23.426;2023-04-23T03:29:09;74406.69;;;-140.58;100.00
17309;BME280;8772;42.804;23.426;2023-04-23T03:31:36;74394.38;;;-140.58;100.00
17309;BME280;8772;42.804;23.426;2023-04-23T03:34:03;74400.53;;;-140.58;100.00
17309;BME280;8772;42.804;23.426;2023-04-23T03:36:30;74419.00;;;-140.58;100.00
17309;BME280;8772;42.804;23.426;2023-04-23T03:38:56;74406.69;;;-140.58;100.00
17309;BME280;8772;42.804;23.426;2023-04-23T03:41:25;74396.41;;;-140.58;100.00
17309;BME280;8772;42.804;23.426;2023-04-23T03:43:52;74402.56;;;-140.58;100.00
17309;BME280;8772;42.804;23.426;2023-04-23T03:46:18;74400.53;;;-140.58;100.00
17309;BME280;8772;42.804;23.426;2023-04-23T03:48:45;74429.25;;;-140.58;100.00
17309;BME280;8772;42.804;23.426;2023-04-23T03:51:12;74429.25;;;-140.58;100.00
17309;BME280;8772;42.804;23.426;2023-04-23T03:53:39;74431.31;;;-140.58;100.00
17309;BME280;8772;42.804;23.426;2023-04-23T03:56:06;74423.09;;;-140.58;100.00
17309;BME280;8772;42.804;23.426;2023-04-23T03:58:34;74429.25;;;-140.58;100.00
17309;BME280;8772;42.804;23.426;2023-04-23T04:01:01;74437.47;;;-140.58;100.00
17309;BME280;8772;42.804;23.426;2023-04-23T04:03:28;74443.63;;;-140.58;100.00
17309;BME280;8772;42.804;23.426;2023-04-23T04:05:55;74437.47;;;-140.58;100.00
17309;BME280;8772;42.804;23.426;2023-04-23T04:08:21;74427.19;;;-140.58;100.00
17309;BME280;8772;42.804;23.426;2023-04-23T04:10:48;74421.03;;;-140.58;100.00
17309;BME280;8772;42.804;23.426;2023-04-23T04:13:15;74414.88;;;-140.58;100.00
17309;BME280;8772;42.804;23.426;2023-04-23T04:15:43;74404.63;;;-140.58;100.00
17309;BME280;8772;42.804;23.426;2023-04-23T04:18:10;74408.72;;;-140.58;100.00
17309;BME280;8772;42.804;23.426;2023-04-23T04:20:37;74398.47;;;-140.58;100.00
17309;BME280;8772;42.804;23.426;2023-04-23T04:23:04;74384.13;;;-140.58;100.00
17309;BME280;8772;42.804;23.426;2023-04-23T04:25:31;74371.81;;;-140.58;100.00
17309;BME280;8772;42.804;23.426;2023-04-23T04:27:58;74375.91;;;-140.58;100.00
17309;BME280;8772;42.804;23.426;2023-04-23T04:30:24;74369.75;;;-140.58;100.00
17309;BME280;8772;42.804;23.426;2023-04-23T04:32:53;74375.91;;;-140.58;100.00
17309;BME280;8772;42.804;23.426;2023-04-23T04:35:20;74371.81;;;-140.58;100.00
17309;BME280;8772;42.804;23.426;2023-04-23T04:37:47;74357.44;;;-140.58;100.00
17309;BME280;8772;42.804;23.426;2023-04-23T04:40:14;74338.97;;;-140.58;100.00
17309;BME280;8772;42.804;23.426;2023-04-23T04:42:41;74326.66;;;-140.58;100.00
17309;BME280;8772;42.804;23.426;2023-04-23T04:45:09;74322.56;;;-140.58;100.00
17309;BME280;8772;42.804;23.426;2023-04-23T04:47:36;74306.16;;;-140.58;100.00
17309;BME280;8772;42.804;23.426;2023-04-23T04:50:05;74300.00;;;-140.58;100.00
17309;BME280;8772;42.804;23.426;2023-04-23T04:52:32;74287.69;;;-140.58;100.00
17309;BME280;8772;42.804;23.426;2023-04-23T04:54:59;74285.63;;;-140.58;100.00
17309;BME280;8772;42.804;23.426;2023-04-23T04:57:26;74273.31;;;-140.58;100.00
17309;BME280;8772;42.804;23.426;2023-04-23T04:59:53;74256.91;;;-140.58;100.00
17309;BME280;8772;42.804;23.426;2023-04-23T05:02:20;74248.69;;;-140.58;100.00
17309;BME280;8772;42.804;23.426;2023-04-23T05:04:47;74236.38;;;-140.58;100.00
17309;BME280;8772;42.804;23.426;2023-04-23T05:07:16;74226.13;;;-140.58;100.00
17309;BME280;8772;42.804;23.426;2023-04-23T05:09:43;74207.66;;;-140.58;100.00
17309;BME280;8772;42.804;23.426;2023-04-23T05:12:09;74197.41;;;-140.58;100.00
17309;BME280;8772;42.804;23.426;2023-04-23T05:14:36;74185.09;;;-140.58;100.00
17309;BME280;8772;42.804;23.426;2023-04-23T05:17:03;74170.72;;;-140.58;100.00
17309;BME280;8772;42.804;23.426;2023-04-23T05:19:30;74156.38;;;-140.58;100.00
17309;BME280;8772;42.804;23.426;2023-04-23T05:21:57;74137.91;;;-140.58;100.00
17309;BME280;8772;42.804;23.426;2023-04-23T05:24:28;74119.44;;;-140.58;100.00
17309;BME280;8772;42.804;23.426;2023-04-23T05:26:55;74092.78;;;-140.58;100.00
17309;BME280;8772;42.804;23.426;2023-04-23T05:29:22;74072.25;;;-140.58;100.00
17309;BME280;8772;42.804;23.426;2023-04-23T05:31:49;74041.47;;;-140.58;100.00
17309;BME280;8772;42.804;23.426;2023-04-23T05:34:16;74018.91;;;-140.58;100.00
17309;BME280;8772;42.804;23.426;2023-04-23T05:36:43;73990.19;;;-140.58;100.00
17309;BME280;8772;42.804;23.426;2023-04-23T05:39:09;73957.38;;;-140.58;100.00
17309;BME280;8772;42.804;23.426;2023-04-23T05:41:38;73926.59;;;-140.58;100.00
17309;BME280;8772;42.804;23.426;2023-04-23T05:44:05;73899.91;;;-140.58;100.00
17309;BME280;8772;42.804;23.426;2023-04-23T05:46:32;73867.09;;;-140.58;100.00
17309;BME280;8772;42.804;23.426;2023-04-23T05:48:58;73836.31;;;-140.58;100.00
17309;BME280;8772;42.804;23.426;2023-04-23T05:51:25;73809.66;;;-140.58;100.00
17309;BME280;8772;42.804;23.426;2023-04-23T05:53:52;73789.16;;;-140.58;100.00
17309;BME280;8772;42.804;23.426;2023-04-23T05:56:19;73756.31;;;-140.58;100.00
17309;BME280;8772;42.804;23.426;2023-04-23T05:58:47;73731.72;;;-140.58;100.00
17309;BME280;8772;42.804;23.426;2023-04-23T06:01:14;73711.19;;;-140.58;100.00
17309;BME280;8772;42.804;23.426;2023-04-23T06:03:41;73717.34;;;-140.58;100.00
17309;BME280;8772;42.804;23.426;2023-04-23T06:06:09;73692.72;;;-140.58;100.00
17309;BME280;8772;42.804;23.426;2023-04-23T06:08:37;73688.63;;;-140.58;100.00
17309;BME280;8772;42.804;23.426;2023-04-23T06:11:04;73655.81;;;-140.58;100.00
17309;BME280;8772;42.804;23.426;2023-04-23T06:13:32;73631.19;;;-140.58;100.00
17309;BME280;8772;42.804;23.426;2023-04-23T06:16:06;73608.63;;;-140.58;100.00
17309;BME280;8772;42.804;23.426;2023-04-23T06:18:33;73581.97;;;-140.58;100.00
17309;BME280;8772;42.804;23.426;2023-04-23T06:21:00;73563.50;;;-140.58;100.00
17309;BME280;8772;42.804;23.426;2023-04-23T06:23:28;73563.50;;;-140.58;100.00
17309;BME280;8772;42.804;23.426;2023-04-23T06:25:55;73569.66;;;-140.58;97.56
17309;BME280;8772;42.804;23.426;2023-04-23T06:28:22;73567.59;;;-140.58;96.41
17309;BME280;8772;42.804;23.426;2023-04-23T06:30:49;73549.13;;;-140.58;97.57
17309;BME280;8772;42.804;23.426;2023-04-23T06:33:17;73534.78;;;-140.58;97.20
17309;BME280;8772;42.804;23.426;2023-04-23T06:35:44;73510.16;;;-140.58;98.82
17309;BME280;8772;42.804;23.426;2023-04-23T06:38:12;73495.81;;;-140.58;97.38
17309;BME280;8772;42.804;23.426;2023-04-23T06:40:39;73477.34;;;-140.58;100.00
17309;BME280;8772;42.804;23.426;2023-04-23T06:43:06;73469.13;;;-140.58;95.89
17309;BME280;8772;42.804;23.426;2023-04-23T06:45:34;73444.53;;;-140.58;92.87
17309;BME280;8772;42.804;23.426;2023-04-23T06:48:00;73438.38;;;-140.58;92.45
17309;BME280;8772;42.804;23.426;2023-04-23T06:50:29;73460.94;;;-140.58;87.70
17309;BME280;8772;42.804;23.426;2023-04-23T06:52:57;73465.03;;;-140.58;86.18
17309;BME280;8772;42.804;23.426;2023-04-23T06:55:24;73471.19;;;-140.58;87.75
17309;BME280;8772;42.804;23.426;2023-04-23T06:57:51;73448.63;;;-140.58;87.65
17309;BME280;8772;42.804;23.426;2023-04-23T07:00:18;73419.91;;;-140.58;92.75
17309;BME280;8772;42.804;23.426;2023-04-23T07:02:45;73419.91;;;-140.58;88.02
17309;BME280;8772;42.804;23.426;2023-04-23T07:05:12;73442.47;;;-140.58;85.02
17309;BME280;8772;42.804;23.426;2023-04-23T07:07:40;73444.53;;;-140.58;82.81
17309;BME280;8772;42.804;23.426;2023-04-23T07:10:09;73419.91;;;-140.58;82.23
17309;BME280;8772;42.804;23.426;2023-04-23T07:12:36;73432.22;;;-140.58;79.22
17309;BME280;8772;42.804;23.426;2023-04-23T07:15:04;73413.75;;;-140.58;83.58
17309;BME280;8772;42.804;23.426;2023-04-23T07:17:32;73399.41;;;-140.58;80.73
17309;BME280;8772;42.804;23.426;2023-04-23T07:19:59;73387.09;;;-140.58;83.38
17309;BME280;8772;42.804;23.426;2023-04-23T07:22:29;73372.72;;;-140.58;77.83
17309;BME280;8772;42.804;23.426;2023-04-23T07:24:57;73395.28;;;-140.58;75.33
17309;BME280;8772;42.804;23.426;2023-04-23T07:27:24;73378.88;;;-140.58;80.13
17309;BME280;8772;42.804;23.426;2023-04-23T07:29:51;73350.16;;;-140.58;81.34
17309;BME280;8772;42.804;23.426;2023-04-23T07:32:18;73362.47;;;-140.58;78.37
17309;BME280;8772;42.804;23.426;2023-04-23T07:34:47;73354.28;;;-140.58;74.76
17309;BME280;8772;42.804;23.426;2023-04-23T07:37:15;73354.28;;;-140.58;77.14
17309;BME280;8772;42.804;23.426;2023-04-23T07:39:42;73331.69;;;-140.58;79.69
17309;BME280;8772;42.804;23.426;2023-04-23T07:42:10;73317.34;;;-140.58;74.11
17309;BME280;8772;42.804;23.426;2023-04-23T07:44:37;73309.13;;;-140.58;74.65
17309;BME280;8772;42.804;23.426;2023-04-23T07:47:04;73284.53;;;-140.58;74.02
17309;BME280;8772;42.804;23.426;2023-04-23T07:49:31;73278.38;;;-140.58;74.42
17309;BME280;8772;42.804;23.426;2023-04-23T07:51:58;73276.31;;;-140.58;72.04
17309;BME280;8772;42.804;23.426;2023-04-23T07:54:25;73282.47;;;-140.58;74.66
17309;BME280;8772;42.804;23.426;2023-04-23T07:56:52;73268.13;;;-140.58;72.39
17309;BME280;8772;42.804;23.426;2023-04-23T07:59:20;73282.47;;;-140.58;73.85
17309;BME280;8772;42.804;23.426;2023-04-23T08:01:47;73257.88;;;-140.58;73.49
17309;BME280;8772;42.804;23.426;2023-04-23T08:04:14;73220.94;;;-140.58;75.14
17309;BME280;8772;42.804;23.426;2023-04-23T08:06:41;73202.47;;;-140.58;74.06
17309;BME280;8772;42.804;23.426;2023-04-23T08:09:07;73177.88;;;-140.58;70.91
17309;BME280;8772;42.804;23.426;2023-04-23T08:11:34;73159.41;;;-140.58;74.62
17309;BME280;8772;42.804;23.426;2023-04-23T08:14:01;73128.66;;;-140.58;72.63
17309;BME280;8772;42.804;23.426;2023-04-23T08:16:29;73120.44;;;-140.58;64.86
17309;BME280;8772;42.804;23.426;2023-04-23T08:18:56;73118.38;;;-140.58;66.92
17309;BME280;8772;42.804;23.426;2023-04-23T08:21:24;73081.47;;;-140.58;69.08
17309;BME280;8772;42.804;23.426;2023-04-23T08:23:51;73067.13;;;-140.58;64.83
17309;BME280;8772;42.804;23.426;2023-04-23T08:26:18;73087.63;;;-140.58;61.25
17309;BME280;8772;42.804;23.426;2023-04-23T08:28:45;73044.56;;;-140.58;65.04
17309;BME280;8772;42.804;23.426;2023-04-23T08:31:12;73024.03;;;-140.58;61.71
17309;BME280;8772;42.804;23.426;2023-04-23T08:33:42;73005.59;;;-140.58;59.25
17309;BME280;8772;42.804;23.426;2023-04-23T08:36:09;73005.59;;;-140.58;59.31
17309;BME280;8772;42.804;23.426;2023-04-23T08:38:35;73009.69;;;-140.58;59.25
17309;BME280;8772;42.804;23.426;2023-04-23T08:41:04;72952.25;;;-140.58;61.00
17309;BME280;8772;42.804;23.426;2023-04-23T08:43:37;72931.75;;;-140.58;54.46
17309;BME280;8772;42.804;23.426;2023-04-23T08:46:11;72907.13;;;-140.58;53.80
17309;BME280;8772;42.804;23.426;2023-04-23T08:48:39;72903.03;;;-140.58;52.70
17309;BME280;8772;42.804;23.426;2023-04-23T08:51:08;72857.91;;;-140.58;51.82
17309;BME280;8772;42.804;23.426;2023-04-23T08:53:36;72816.91;;;-140.58;50.95
17309;BME280;8772;42.804;23.426;2023-04-23T08:56:04;72804.59;;;-140.58;49.33
17309;BME280;8772;42.804;23.426;2023-04-23T08:58:33;72804.59;;;-140.58;47.73
17309;BME280;8772;42.804;23.426;2023-04-23T09:01:00;72755.38;;;-140.58;50.31
17309;BME280;8772;42.804;23.426;2023-04-23T09:03:28;72718.47;;;-140.58;49.72
17309;BME280;8772;42.804;23.426;2023-04-23T09:05:56;72693.84;;;-140.58;47.66
17309;BME280;8772;42.804;23.426;2023-04-23T09:08:24;72697.97;;;-140.58;44.35
17309;BME280;8772;42.804;23.426;2023-04-23T09:10:53;72646.69;;;-140.58;44.25
17309;BME280;8772;42.804;23.426;2023-04-23T09:13:22;72677.44;;;-140.58;42.75
17309;BME280;8772;42.804;23.426;2023-04-23T09:15:49;72675.41;;;-140.58;41.40
17309;BME280;8772;42.804;23.426;2023-04-23T09:18:18;72697.97;;;-140.58;42.53
17309;BME280;8772;42.804;23.426;2023-04-23T09:20:46;72687.69;;;-140.58;42.53
17309;BME280;8772;42.804;23.426;2023-04-23T09:23:14;72689.75;;;-140.58;42.40
17309;BME280;8772;42.804;23.426;2023-04-23T09:25:42;72681.53;;;-140.58;45.03
17309;BME280;8772;42.804;23.426;2023-04-23T09:28:09;72613.88;;;-140.58;45.25
17309;BME280;8772;42.804;23.426;2023-04-23T09:30:42;72562.59;;;-140.58;42.40
17309;BME280;8772;42.804;23.426;2023-04-23T09:33:10;72521.59;;;-140.58;43.40
17309;BME280;8772;42.804;23.426;2023-04-23T09:35:37;72505.19;;;-140.58;41.22
17309;BME280;8772;42.804;23.426;2023-04-23T09:38:06;72583.13;;;-140.58;40.70
17309;BME280;8772;42.804;23.426;2023-04-23T09:40:35;72636.44;;;-140.58;41.10
17309;BME280;8772;42.804;23.426;2023-04-23T09:43:04;72636.44;;;-140.58;40.47
17309;BME280;8772;42.804;23.426;2023-04-23T09:45:31;72587.22;;;-140.58;42.15
17309;BME280;8772;42.804;23.426;2023-04-23T09:47:59;72583.13;;;-140.58;42.35
17309;BME280;8772;42.804;23.426;2023-04-23T09:50:34;72501.09;;;-140.58;40.79
17309;BME280;8772;42.804;23.426;2023-04-23T09:53:01;72472.38;;;-140.58;40.98
17309;BME280;8772;42.804;23.426;2023-04-23T09:55:29;72423.16;;;-140.58;42.10
17309;BME280;8772;42.804;23.426;2023-04-23T09:58:00;72373.94;;;-140.58;39.41
17309;BME280;8772;42.804;23.426;2023-04-23T10:00:32;72390.34;;;-140.58;36.84
17309;BME280;8772;42.804;23.426;2023-04-23T10:02:59;72449.81;;;-140.58;37.30
17309;BME280;8772;42.804;23.426;2023-04-23T10:05:27;72404.72;;;-140.58;39.36
17309;BME280;8772;42.804;23.426;2023-04-23T10:07:55;72361.66;;;-140.58;37.34
17309;BME280;8772;42.804;23.426;2023-04-23T10:10:22;72308.31;;;-140.58;38.93
17309;BME280;8772;42.804;23.426;2023-04-23T10:12:51;72291.94;;;-140.58;36.43
17309;BME280;8772;42.804;23.426;2023-04-23T10:15:18;72298.06;;;-140.58;34.58
17309;BME280;8772;42.804;23.426;2023-04-23T10:17:47;72222.22;;;-140.58;36.72
17309;BME280;8772;42.804;23.426;2023-04-23T10:20:15;72218.09;;;-140.58;36.36
17309;BME280;8772;42.804;23.426;2023-04-23T10:22:43;72173.00;;;-140.58;35.13
17309;BME280;8772;42.804;23.426;2023-04-23T10:25:11;72154.53;;;-140.58;34.32
17309;BME280;8772;42.804;23.426;2023-04-23T10:27:39;72173.00;;;-140.58;36.28
17309;BME280;8772;42.804;23.426;2023-04-23T10:30:09;72144.28;;;-140.58;35.58
17309;BME280;8772;42.804;23.426;2023-04-23T10:32:36;72082.78;;;-140.58;35.57
17309;BME280;8772;42.804;23.426;2023-04-23T10:35:06;72170.94;;;-140.58;32.77
17309;BME280;8772;42.804;23.426;2023-04-23T10:37:34;72232.47;;;-140.58;32.09
17309;BME280;8772;42.804;23.426;2023-04-23T10:40:05;72156.59;;;-140.58;34.61
17309;BME280;8772;42.804;23.426;2023-04-23T10:42:36;72099.19;;;-140.58;32.57
17309;BME280;8772;42.804;23.426;2023-04-23T10:45:11;72058.16;;;-140.58;32.23
17309;BME280;8772;42.804;23.426;2023-04-23T10:47:41;72031.53;;;-140.58;32.50
17309;BME280;8772;42.804;23.426;2023-04-23T10:50:21;72004.88;;;-140.58;32.03
17309;BME280;8772;42.804;23.426;2023-04-23T10:52:48;71951.56;;;-140.58;31.33
17309;BME280;8772;42.804;23.426;2023-04-23T10:55:19;71914.66;;;-140.58;31.63
17309;BME280;8772;42.804;23.426;2023-04-23T10:58:05;71920.78;;;-140.58;31.47
17309;BME280;8772;42.804;23.426;2023-04-23T11:00:43;71941.31;;;-140.58;31.23
17309;BME280;8772;42.804;23.426;2023-04-23T11:03:36;71924.91;;;-140.58;29.71
17309;BME280;8772;42.804;23.426;2023-04-23T11:06:05;72033.56;;;-140.58;29.22
17309;BME280;8772;42.804;23.426;2023-04-23T11:08:34;72015.13;;;-140.58;31.55
17309;BME280;8772;42.804;23.426;2023-04-23T11:11:06;71959.75;;;-140.58;31.21
17309;BME280;8772;42.804;23.426;2023-04-23T11:13:33;71918.75;;;-140.58;32.13
17309;BME280;8772;42.804;23.426;2023-04-23T11:16:14;71908.50;;;-140.58;30.08
17309;BME280;8772;42.804;23.426;2023-04-23T11:19:00;71894.16;;;-140.58;29.58
17309;BME280;8772;42.804;23.426;2023-04-23T11:21:58;71906.44;;;-140.58;29.44
17309;BME280;8772;42.804;23.426;2023-04-23T11:24:27;71896.19;;;-140.58;29.87
17309;BME280;8772;42.804;23.426;2023-04-23T11:26:54;71869.53;;;-140.58;29.20
17309;BME280;8772;42.804;23.426;2023-04-23T11:29:22;71902.34;;;-140.58;31.03
17309;BME280;8772;42.804;23.426;2023-04-23T11:31:49;71902.34;;;-140.58;31.26
17309;BME280;8772;42.804;23.426;2023-04-23T11:34:16;71941.31;;;-140.58;30.10
17309;BME280;8772;42.804;23.426;2023-04-23T11:36:43;71922.84;;;-140.58;31.03
17309;BME280;8772;42.804;23.426;2023-04-23T11:39:12;71914.66;;;-140.58;29.61
17309;BME280;8772;42.804;23.426;2023-04-23T11:41:39;71894.16;;;-140.58;30.56
17309;BME280;8772;42.804;23.426;2023-04-23T11:44:08;71892.09;;;-140.58;29.89
17309;BME280;8772;42.804;23.426;2023-04-23T11:46:37;72041.78;;;-140.58;29.94
17309;BME280;8772;42.804;23.426;2023-04-23T11:49:04;72216.06;;;-140.58;30.29
17309;BME280;8772;42.804;23.426;2023-04-23T11:51:34;72177.09;;;-140.58;30.42
17309;BME280;8772;42.804;23.426;2023-04-23T11:54:04;72132.00;;;-140.58;30.13
17309;BME280;8772;42.804;23.426;2023-04-23T11:56:32;72183.25;;;-140.58;29.89
17309;BME280;8772;42.804;23.426;2023-04-23T11:59:00;72234.50;;;-140.58;29.31
17309;BME280;8772;42.804;23.426;2023-04-23T12:01:39;72259.13;;;-140.58;29.37
17309;BME280;8772;42.804;23.426;2023-04-23T12:04:14;72263.22;;;-140.58;30.65
17309;BME280;8772;42.804;23.426;2023-04-23T12:06:42;72273.47;;;-140.58;31.28
17309;BME280;8772;42.804;23.426;2023-04-23T12:09:10;72267.31;;;-140.58;31.48
17309;BME280;8772;42.804;23.426;2023-04-23T12:11:39;72259.13;;;-140.58;31.36
17309;BME280;8772;42.804;23.426;2023-04-23T12:14:06;72318.59;;;-140.58;31.54
17309;BME280;8772;42.804;23.426;2023-04-23T12:16:38;72443.66;;;-140.58;32.33
17309;BME280;8772;42.804;23.426;2023-04-23T12:19:09;72455.97;;;-140.58;32.95
17309;BME280;8772;42.804;23.426;2023-04-23T12:21:51;72425.22;;;-140.58;32.99
17309;BME280;8772;42.804;23.426;2023-04-23T12:24:20;72419.06;;;-140.58;32.33
17309;BME280;8772;42.804;23.426;2023-04-23T12:26:50;72427.25;;;-140.58;31.19
17309;BME280;8772;42.804;23.426;2023-04-23T12:29:19;72439.56;;;-140.58;30.73
17309;BME280;8772;42.804;23.426;2023-04-23T12:31:46;72435.47;;;-140.58;31.19
17309;BME280;8772;42.804;23.426;2023-04-23T12:34:13;72455.97;;;-140.58;31.16
17309;BME280;8772;42.804;23.426;2023-04-23T12:36:43;72437.50;;;-140.58;31.86
17309;BME280;8772;42.804;23.426;2023-04-23T12:39:34;72451.88;;;-140.58;31.38
17309;BME280;8772;42.804;23.426;2023-04-23T12:42:04;72427.25;;;-140.58;32.52
17309;BME280;8772;42.804;23.426;2023-04-23T12:44:32;72367.78;;;-140.58;32.63